Terminal Aerodrome Forecast
Issued by NWS Grand Forks, ND

Home | Current Version | Previous Version | Text Only | Print | Product List | Glossary On
Versions: 1 2 3 4 5 6 7 8 9 10 11 12 13 14 15 16 17 18 19 20 21
000
FTUS43 KFGF 170250 AAA
TAFGFK
TAF AMD
KGFK 170250Z 1703/1724 24005KT P6SM OVC050
      TEMPO 1703/1706 BKN025
     FM170800 27009KT P6SM BKN035
     FM171300 27009KT P6SM SCT050=

USA.gov is the U.S. government's official web portal to all federal, state and local government web resources and services.